createdAt,value
2023-04-23T00:03:36.327Z,99593.16
2023-04-23T00:07:38.774Z,99591.44
2023-04-23T00:11:40.856Z,99588.22
2023-04-23T00:15:42.650Z,99585.00
2023-04-23T00:19:44.160Z,99588.78
2023-04-23T00:23:46.225Z,99573.16
2023-04-23T00:27:48.237Z,99573.41
2023-04-23T00:31:50.002Z,99568.34
2023-04-23T00:35:51.803Z,99570.59
2023-04-23T00:39:53.778Z,99565.81
2023-04-23T00:43:57.797Z,99564.66
2023-04-23T00:47:59.682Z,99563.00
2023-04-23T00:52:01.365Z,99552.44
2023-04-23T00:56:05.393Z,99559.31
2023-04-23T01:00:08.407Z,99557.03
2023-04-23T01:04:10.804Z,99561.25
2023-04-23T01:08:16.279Z,99563.78
2023-04-23T01:12:18.049Z,99562.09
2023-04-23T01:16:19.657Z,99565.78
2023-04-23T01:20:21.771Z,99562.59
2023-04-23T01:24:23.980Z,99563.16
2023-04-23T01:28:26.226Z,99562.44
2023-04-23T01:32:28.470Z,99565.00
2023-04-23T01:36:31.171Z,99558.94
2023-04-23T01:40:32.943Z,99565.66
2023-04-23T01:44:34.673Z,99563.66
2023-04-23T01:48:37.339Z,99577.69
2023-04-23T01:52:39.000Z,99570.06
2023-04-23T01:56:40.762Z,99565.00
2023-04-23T02:00:42.381Z,99565.16
2023-04-23T02:04:45.856Z,99569.19
2023-04-23T02:08:47.520Z,99565.69
2023-04-23T02:12:49.193Z,99552.31
2023-04-23T02:16:51.508Z,99559.31
2023-04-23T02:20:54.190Z,99559.09
2023-04-23T02:24:56.006Z,99557.41
2023-04-23T02:28:57.565Z,99563.34
2023-04-23T02:32:59.311Z,99563.06
2023-04-23T02:37:00.977Z,99566.03
2023-04-23T02:41:02.681Z,99568.16
2023-04-23T02:45:04.562Z,99571.09
2023-04-23T02:49:06.711Z,99568.41
2023-04-23T02:53:08.272Z,99564.22
2023-04-23T02:57:10.148Z,99557.41
2023-04-23T03:01:12.285Z,99558.03
2023-04-23T03:05:14.092Z,99566.28
2023-04-23T03:09:16.369Z,99565.00
2023-04-23T03:13:17.891Z,99556.03
2023-04-23T03:17:19.385Z,99554.50
2023-04-23T03:21:21.256Z,99550.16
2023-04-23T03:25:25.705Z,99538.06
2023-04-23T03:29:28.290Z,99532.19
2023-04-23T03:33:30.222Z,99530.69
2023-04-23T03:37:32.040Z,99530.81
2023-04-23T03:41:33.853Z,99512.34
2023-04-23T03:45:36.882Z,99500.81
2023-04-23T03:49:40.279Z,99495.06
2023-04-23T03:53:42.656Z,99500.25
2023-04-23T03:58:19.327Z,99510.97
2023-04-23T04:02:22.921Z,99518.00
2023-04-23T04:06:27.597Z,99507.88
2023-04-23T04:10:31.004Z,99509.56
2023-04-23T04:14:32.857Z,99501.53
2023-04-23T04:18:34.447Z,99498.03
2023-04-23T04:22:36.027Z,99503.78
2023-04-23T04:26:37.713Z,99502.25
2023-04-23T04:30:40.352Z,99517.88
2023-04-23T04:34:42.103Z,99520.38
2023-04-23T04:38:43.818Z,99521.94
2023-04-23T04:42:46.483Z,99526.44
2023-04-23T04:46:48.040Z,99530.09
2023-04-23T04:50:49.762Z,99532.09
2023-04-23T04:54:51.344Z,99529.41
2023-04-23T04:58:52.994Z,99530.69
2023-04-23T05:02:55.579Z,99533.06
2023-04-23T05:06:57.319Z,99538.41
2023-04-23T05:11:00.731Z,99541.09
2023-04-23T05:15:02.291Z,99536.31
2023-04-23T05:19:03.814Z,99544.47
2023-04-23T05:23:05.878Z,99545.31
2023-04-23T05:27:07.330Z,99554.03
2023-04-23T05:31:08.939Z,99555.16
2023-04-23T05:35:10.747Z,99563.91
2023-04-23T05:39:12.453Z,99564.72
2023-04-23T05:43:14.135Z,99563.03
2023-04-23T05:47:15.714Z,99563.59
2023-04-23T05:51:17.715Z,99562.88
2023-04-23T05:55:21.008Z,99559.81
2023-04-23T05:59:22.816Z,99567.25
2023-04-23T06:03:24.701Z,99562.53
2023-04-23T06:07:26.554Z,99554.94
2023-04-23T06:11:28.182Z,99554.22
2023-04-23T06:15:29.846Z,99549.09
2023-04-23T06:19:31.430Z,99551.13
2023-04-23T06:23:34.215Z,99551.75
2023-04-23T06:27:35.779Z,99556.13
2023-04-23T06:31:44.634Z,99558.69
2023-04-23T06:35:47.072Z,99569.44
2023-04-23T06:39:49.391Z,99568.16
2023-04-23T06:43:50.858Z,99568.53
2023-04-23T06:48:07.113Z,99572.28
2023-04-23T06:52:08.659Z,99575.72
2023-04-23T06:56:10.434Z,99574.66
2023-04-23T07:00:13.126Z,99580.91
2023-04-23T07:04:16.969Z,99570.78
2023-04-23T07:08:18.550Z,99579.41
2023-04-23T07:12:20.225Z,99579.59
2023-04-23T07:16:22.794Z,99577.19
2023-04-23T07:20:24.374Z,99577.59
2023-04-23T07:24:26.708Z,99584.91
2023-04-23T07:28:28.374Z,99573.91
2023-04-23T07:32:30.500Z,99575.16
2023-04-23T07:36:31.984Z,99582.53
2023-04-23T07:40:33.899Z,99587.50
2023-04-23T07:44:36.116Z,99579.84
2023-04-23T07:48:37.761Z,99599.16
2023-04-23T07:52:39.923Z,99594.81
2023-04-23T07:56:43.224Z,99594.34
2023-04-23T08:00:45.202Z,99600.16
2023-04-23T08:04:46.963Z,99600.13
2023-04-23T08:08:49.419Z,99602.38
2023-04-23T08:12:51.271Z,99606.03
2023-04-23T08:16:52.887Z,99599.53
2023-04-23T08:20:55.016Z,99601.38
2023-04-23T08:24:56.795Z,99603.31
2023-04-23T08:29:00.530Z,99599.84
2023-04-23T08:33:02.283Z,99594.25
2023-04-23T08:37:04.642Z,99602.47
2023-04-23T08:41:09.265Z,99613.38
2023-04-23T08:45:11.751Z,99618.44
2023-04-23T08:49:18.711Z,99617.81
2023-04-23T08:53:25.195Z,99616.53
2023-04-23T08:57:27.128Z,99621.06
2023-04-23T09:01:30.114Z,99622.13
2023-04-23T09:05:32.201Z,99627.41
2023-04-23T09:09:33.715Z,99625.38
2023-04-23T09:13:36.131Z,99627.16
2023-04-23T09:17:46.552Z,99627.13
2023-04-23T09:21:48.142Z,99637.63
2023-04-23T09:25:49.791Z,99638.31
2023-04-23T09:29:53.103Z,99642.88
2023-04-23T09:33:55.128Z,99645.38
2023-04-23T09:37:56.779Z,99644.75
2023-04-23T09:42:04.401Z,99635.50
2023-04-23T09:46:06.020Z,99635.06
2023-04-23T09:50:10.476Z,99636.72
2023-04-23T09:54:21.705Z,99637.16
2023-04-23T09:58:27.549Z,99636.59
2023-04-23T10:02:30.735Z,99637.00
2023-04-23T10:06:44.422Z,99636.78
2023-04-23T10:11:03.141Z,99637.97
2023-04-23T10:15:12.888Z,99634.38
2023-04-23T10:19:15.985Z,99637.34
2023-04-23T10:23:21.828Z,99627.16
2023-04-23T10:27:40.377Z,99621.75
2023-04-23T10:31:51.051Z,99628.78
2023-04-23T10:35:55.388Z,99627.59
2023-04-23T10:40:09.001Z,99611.72
2023-04-23T10:44:16.717Z,99622.53
2023-04-23T10:48:18.299Z,99616.78
2023-04-23T10:52:22.999Z,99621.81
2023-04-23T10:56:28.329Z,99624.75
2023-04-23T11:00:51.077Z,99617.78
2023-04-23T11:04:57.900Z,99618.78
2023-04-23T11:08:59.683Z,99622.63
2023-04-23T11:13:20.628Z,99628.41
2023-04-23T11:17:43.324Z,99624.91
2023-04-23T11:22:01.426Z,99631.59
2023-04-23T11:26:05.351Z,99623.19
2023-04-23T11:30:15.111Z,99624.88
2023-04-23T11:34:17.958Z,99635.50
2023-04-23T11:38:21.081Z,99630.47
2023-04-23T11:42:23.156Z,99629.03
2023-04-23T11:46:24.970Z,99617.75
2023-04-23T11:50:33.000Z,99620.97
2023-04-23T11:54:35.140Z,99623.91
2023-04-23T11:58:37.844Z,99633.44
2023-04-23T12:03:00.230Z,99631.59
2023-04-23T12:07:05.919Z,99626.34
2023-04-23T12:11:15.180Z,99632.25
2023-04-23T12:15:16.748Z,99624.63
2023-04-23T12:19:20.858Z,99620.88
2023-04-23T12:23:27.198Z,99624.47
2023-04-23T12:27:33.721Z,99630.41
2023-04-23T12:31:38.478Z,99632.25
2023-04-23T12:36:11.253Z,99626.19
2023-04-23T12:40:13.040Z,99625.81
2023-04-23T12:44:14.757Z,99617.06
2023-04-23T12:48:16.425Z,99608.44
2023-04-23T12:52:18.247Z,99608.69
2023-04-23T12:56:20.656Z,99612.03
2023-04-23T13:00:23.123Z,99605.44
2023-04-23T13:04:24.759Z,99596.81
2023-04-23T13:08:26.220Z,99602.88
2023-04-23T13:12:27.951Z,99591.50
2023-04-23T13:16:30.263Z,99582.88
2023-04-23T13:20:31.829Z,99582.97
2023-04-23T13:24:33.605Z,99569.47
2023-04-23T13:28:36.324Z,99568.69
2023-04-23T13:32:38.071Z,99553.09
2023-04-23T13:36:42.833Z,99549.41
2023-04-23T13:40:44.702Z,99536.91
2023-04-23T13:44:46.428Z,99543.31
2023-04-23T13:48:48.003Z,99524.63
2023-04-23T13:52:49.657Z,99526.63
2023-04-23T13:57:45.221Z,99524.78
2023-04-23T14:02:56.946Z,99521.28
2023-04-23T14:07:01.206Z,99524.31
2023-04-23T14:11:04.094Z,99516.47
2023-04-23T14:15:07.135Z,99505.16
2023-04-23T14:19:08.745Z,99497.16
2023-04-23T14:23:22.743Z,99503.59
2023-04-23T14:27:46.977Z,99496.88
2023-04-23T14:31:51.594Z,99496.53
2023-04-23T14:35:54.210Z,99494.44
2023-04-23T14:39:55.775Z,99500.88
2023-04-23T14:44:19.041Z,99502.19
2023-04-23T14:48:20.575Z,99486.03
2023-04-23T14:52:22.297Z,99474.69
2023-04-23T14:56:24.108Z,99470.47
2023-04-23T15:00:26.576Z,99469.50
2023-04-23T15:04:29.426Z,99463.81
2023-04-23T15:08:51.449Z,99454.88
2023-04-23T15:13:14.496Z,99453.84
2023-04-23T15:17:17.423Z,99455.72
2023-04-23T15:21:19.109Z,99451.63
2023-04-23T15:25:20.710Z,99458.19
2023-04-23T15:29:27.900Z,99449.41
2023-04-23T15:33:29.759Z,99453.34
2023-04-23T15:38:05.682Z,99449.66
2023-04-23T15:42:07.896Z,99439.13
2023-04-23T15:46:09.450Z,99436.06
2023-04-23T15:50:33.750Z,99426.88
2023-04-23T15:59:18.582Z,99421.69
2023-04-23T16:03:21.132Z,99416.28
2023-04-23T16:07:22.897Z,99419.81
2023-04-23T16:11:27.682Z,99418.09
2023-04-23T16:15:29.704Z,99416.03
2023-04-23T16:19:31.556Z,99402.22
2023-04-23T16:23:33.848Z,99395.38
2023-04-23T16:28:18.153Z,99383.25
2023-04-23T16:32:20.611Z,99390.09
2023-04-23T16:36:22.491Z,99380.03
2023-04-23T16:40:32.240Z,99379.31
2023-04-23T16:44:33.916Z,99372.78
2023-04-23T16:48:35.373Z,99366.56
2023-04-23T16:52:56.808Z,99355.72
2023-04-23T16:56:58.438Z,99362.97
2023-04-23T17:01:03.149Z,99371.19
2023-04-23T17:05:15.145Z,99362.75
2023-04-23T17:09:20.600Z,99359.22
2023-04-23T17:13:22.170Z,99362.22
2023-04-23T17:17:24.375Z,99357.81
2023-04-23T17:21:46.017Z,99355.91
2023-04-23T17:25:51.118Z,99355.97
2023-04-23T17:29:52.746Z,99357.03
2023-04-23T17:34:11.910Z,99348.53
2023-04-23T17:38:21.892Z,99356.00
2023-04-23T17:42:23.544Z,99351.00
2023-04-23T17:46:25.034Z,99349.56
2023-04-23T17:50:28.281Z,99347.94
2023-04-23T17:54:29.962Z,99344.66
2023-04-23T17:58:31.607Z,99353.53
2023-04-23T18:02:53.145Z,99348.94
2023-04-23T18:06:55.550Z,99360.88
2023-04-23T18:10:58.453Z,99355.59
2023-04-23T18:15:02.254Z,99361.16
2023-04-23T18:19:03.902Z,99366.56
2023-04-23T18:23:08.668Z,99363.78
2023-04-23T18:27:12.813Z,99372.72
2023-04-23T18:31:28.777Z,99377.97
2023-04-23T18:35:30.313Z,99380.75
2023-04-23T18:39:32.633Z,99388.09
2023-04-23T18:43:37.616Z,99394.53
2023-04-23T18:48:26.415Z,99400.22
2023-04-23T18:52:28.114Z,99401.47
2023-04-23T18:56:30.079Z,99393.31
2023-04-23T19:00:31.679Z,99396.56
2023-04-23T19:04:33.671Z,99399.00
2023-04-23T19:08:35.707Z,99393.25
2023-04-23T19:13:11.096Z,99399.16
2023-04-23T19:18:03.416Z,99401.44
2023-04-23T19:22:05.298Z,99388.50
2023-04-23T19:26:06.781Z,99386.13
2023-04-23T19:30:28.849Z,99377.56
2023-04-23T19:34:33.876Z,99376.47
2023-04-23T19:38:35.714Z,99375.63
2023-04-23T19:42:38.308Z,99365.78
2023-04-23T19:46:59.971Z,99355.81
2023-04-23T19:51:11.945Z,99359.34
2023-04-23T19:55:33.564Z,99362.25
2023-04-23T19:59:35.097Z,99352.59
2023-04-23T20:03:36.895Z,99347.94
2023-04-23T20:07:41.419Z,99340.47
2023-04-23T20:12:25.934Z,99336.41
2023-04-23T20:16:30.609Z,99340.19
2023-04-23T20:20:33.776Z,99326.16
2023-04-23T20:24:56.379Z,99319.97
2023-04-23T20:28:57.860Z,99325.56
2023-04-23T20:33:20.435Z,99321.63
2023-04-23T20:37:22.521Z,99312.06
2023-04-23T20:41:31.279Z,99304.75
2023-04-23T20:45:52.833Z,99305.31
2023-04-23T20:49:54.692Z,99298.69
2023-04-23T20:54:46.417Z,99297.13
2023-04-23T21:05:12.825Z,99292.72
2023-04-23T21:09:14.528Z,99288.06
2023-04-23T21:14:08.998Z,99283.00
2023-04-23T21:24:35.597Z,99289.44
2023-04-23T21:29:30.205Z,99289.94
2023-04-23T21:33:31.890Z,99298.34
2023-04-23T21:38:08.229Z,99300.56
2023-04-23T21:53:22.535Z,99282.19
2023-04-23T21:57:23.989Z,99274.75
2023-04-23T22:01:25.698Z,99272.31
2023-04-23T22:05:28.316Z,99273.31
2023-04-23T22:09:30.427Z,99268.69
2023-04-23T22:13:31.903Z,99259.41
2023-04-23T22:17:36.239Z,99265.78
2023-04-23T22:21:37.888Z,99256.09
2023-04-23T22:25:39.633Z,99246.13
2023-04-23T22:30:15.586Z,99238.84
2023-04-23T22:34:43.296Z,99235.72
2023-04-23T22:38:44.807Z,99229.69
2023-04-23T22:42:46.509Z,99228.72
2023-04-23T22:46:48.045Z,99214.19
2023-04-23T22:50:50.934Z,99209.69
2023-04-23T22:54:54.745Z,99215.03
2023-04-23T22:58:56.735Z,99202.09
2023-04-23T23:02:58.232Z,99197.06
2023-04-23T23:06:59.985Z,99191.59
2023-04-23T23:11:01.588Z,99185.97
2023-04-23T23:15:03.724Z,99172.09
2023-04-23T23:19:05.290Z,99179.38
2023-04-23T23:23:07.320Z,99164.75
2023-04-23T23:27:08.749Z,99164.44
2023-04-23T23:31:10.661Z,99163.63
2023-04-23T23:35:12.519Z,99155.78
2023-04-23T23:39:18.874Z,99144.28
2023-04-23T23:43:20.338Z,99141.03
2023-04-23T23:47:22.356Z,99140.63
2023-04-23T23:51:23.977Z,99140.75
2023-04-23T23:55:25.763Z,99147.06
2023-04-23T23:59:27.516Z,99137.13
